createdAt,value
2018-04-27T00:00:39.193Z,8.20
2018-04-27T00:03:07.509Z,8.20
2018-04-27T00:05:35.790Z,8.20
2018-04-27T00:08:04.107Z,8.20
2018-04-27T00:10:32.401Z,8.20
2018-04-27T00:13:00.687Z,8.10
2018-04-27T00:15:28.988Z,8.00
2018-04-27T00:17:57.260Z,7.90
2018-04-27T00:20:25.566Z,7.60
2018-04-27T00:22:54.612Z,7.60
2018-04-27T00:25:22.916Z,7.50
2018-04-27T00:27:51.210Z,7.60
2018-04-27T00:30:20.294Z,7.80
2018-04-27T00:32:48.573Z,7.70
2018-04-27T00:35:16.873Z,7.80
2018-04-27T00:37:45.161Z,7.80
2018-04-27T00:40:13.468Z,7.90
2018-04-27T00:42:41.752Z,7.80
2018-04-27T00:45:10.051Z,7.80
2018-04-27T00:47:38.331Z,7.70
2018-04-27T00:50:06.636Z,7.70
2018-04-27T00:52:46.752Z,7.70
2018-04-27T00:55:15.085Z,7.60
2018-04-27T00:57:43.413Z,7.30
2018-04-27T01:00:11.758Z,7.30
2018-04-27T01:02:40.857Z,7.40
2018-04-27T01:05:09.284Z,7.40
2018-04-27T01:07:37.673Z,7.50
2018-04-27T01:10:06.049Z,7.50
2018-04-27T01:12:34.452Z,7.50
2018-04-27T01:15:02.815Z,7.40
2018-04-27T01:17:31.144Z,7.20
2018-04-27T01:19:59.537Z,7.20
2018-04-27T01:22:27.880Z,7.20
2018-04-27T01:24:56.226Z,7.20
2018-04-27T01:27:25.308Z,7.30
2018-04-27T01:29:53.681Z,7.30
2018-04-27T01:32:22.044Z,7.40
2018-04-27T01:34:50.401Z,7.30
2018-04-27T01:37:18.688Z,7.20
2018-04-27T01:39:47.038Z,7.20
2018-04-27T01:42:15.321Z,7.20
2018-04-27T01:44:43.629Z,7.30
2018-04-27T01:47:11.899Z,7.40
2018-04-27T01:49:40.209Z,7.40
2018-04-27T01:52:09.248Z,7.10
2018-04-27T01:54:37.558Z,7.10
2018-04-27T01:57:05.875Z,6.90
2018-04-27T01:59:34.258Z,6.80
2018-04-27T02:02:02.599Z,6.80
2018-04-27T02:04:30.976Z,6.80
2018-04-27T02:06:59.333Z,6.80
2018-04-27T02:09:27.728Z,6.70
2018-04-27T02:11:56.039Z,6.50
2018-04-27T02:14:25.120Z,6.60
2018-04-27T02:16:53.396Z,6.50
2018-04-27T02:19:21.684Z,6.70
2018-04-27T02:21:50.755Z,7.00
2018-04-27T02:24:19.056Z,6.90
2018-04-27T02:26:48.122Z,7.00
2018-04-27T02:29:16.397Z,7.00
2018-04-27T02:31:44.704Z,7.10
2018-04-27T02:34:13.748Z,7.10
2018-04-27T02:36:42.053Z,7.00
2018-04-27T02:39:10.344Z,7.10
2018-04-27T02:41:38.648Z,7.10
2018-04-27T02:44:06.944Z,7.10
2018-04-27T02:46:35.265Z,7.10
2018-04-27T02:49:03.552Z,7.00
2018-04-27T02:51:31.874Z,6.90
2018-04-27T02:54:00.153Z,6.80
2018-04-27T02:56:28.452Z,6.70
2018-04-27T02:58:56.731Z,6.70
2018-04-27T03:01:25.829Z,6.60
2018-04-27T03:03:54.156Z,6.60
2018-04-27T03:06:22.517Z,6.60
2018-04-27T03:08:50.845Z,6.50
2018-04-27T03:11:19.268Z,6.40
2018-04-27T03:13:47.591Z,6.40
2018-04-27T03:16:15.948Z,6.40
2018-04-27T03:18:45.057Z,6.50
2018-04-27T03:21:13.425Z,6.50
2018-04-27T03:23:42.484Z,6.60
2018-04-27T03:26:10.804Z,6.50
2018-04-27T03:28:39.840Z,6.30
2018-04-27T03:31:08.156Z,6.30
2018-04-27T03:33:37.205Z,6.30
2018-04-27T03:36:05.504Z,6.30
2018-04-27T03:38:33.798Z,6.30
2018-04-27T03:41:02.109Z,6.40
2018-04-27T03:43:30.381Z,6.40
2018-04-27T03:45:58.697Z,6.40
2018-04-27T03:48:28.160Z,6.30
2018-04-27T03:50:56.437Z,6.20
2018-04-27T03:53:24.746Z,6.10
2018-04-27T03:55:53.035Z,6.10
2018-04-27T03:58:21.349Z,6.20
2018-04-27T04:01:02.419Z,6.30
2018-04-27T04:03:42.353Z,6.20
2018-04-27T04:06:10.667Z,6.30
2018-04-27T04:08:38.957Z,6.30
2018-04-27T04:11:07.248Z,6.30
2018-04-27T04:13:35.653Z,6.40
2018-04-27T04:16:03.852Z,6.50
2018-04-27T04:18:32.162Z,6.40
2018-04-27T04:21:00.445Z,6.30
2018-04-27T04:23:28.748Z,6.30
2018-04-27T04:25:57.041Z,6.20
2018-04-27T04:28:25.360Z,5.90
2018-04-27T04:30:54.398Z,6.00
2018-04-27T04:33:22.699Z,6.00
2018-04-27T04:35:50.974Z,6.10
2018-04-27T04:38:19.295Z,6.20
2018-04-27T04:40:47.613Z,6.20
2018-04-27T04:43:16.679Z,6.40
2018-04-27T04:45:44.952Z,6.40
2018-04-27T04:48:13.265Z,6.40
2018-04-27T04:50:41.540Z,6.20
2018-04-27T04:53:09.848Z,6.10
2018-04-27T04:55:38.120Z,6.20
2018-04-27T04:58:06.430Z,6.30
2018-04-27T05:00:34.705Z,6.40
2018-04-27T05:03:03.029Z,6.50
2018-04-27T05:05:31.304Z,6.40
2018-04-27T05:07:59.620Z,6.40
2018-04-27T05:10:28.670Z,6.50
2018-04-27T05:12:56.984Z,6.50
2018-04-27T05:15:25.256Z,6.60
2018-04-27T05:17:53.576Z,6.60
2018-04-27T05:23:16.624Z,6.60
2018-04-27T05:25:44.945Z,6.70
2018-04-27T05:28:13.262Z,6.80
2018-04-27T05:30:41.586Z,6.80
2018-04-27T05:33:10.075Z,6.80
2018-04-27T05:35:39.150Z,7.00
2018-04-27T05:38:07.601Z,7.00
2018-04-27T05:40:36.782Z,7.10
2018-04-27T05:43:05.111Z,7.10
2018-04-27T05:45:33.520Z,7.10
2018-04-27T05:48:01.883Z,7.20
2018-04-27T05:50:30.220Z,7.10
2018-04-27T05:52:58.601Z,7.20
2018-04-27T05:55:27.674Z,7.30
2018-04-27T05:57:56.848Z,7.30
2018-04-27T06:00:25.272Z,7.30
2018-04-27T06:02:53.656Z,7.30
2018-04-27T06:05:22.018Z,7.30
2018-04-27T06:07:51.181Z,7.40
2018-04-27T06:10:19.530Z,7.40
2018-04-27T06:12:47.901Z,7.50
2018-04-27T06:15:16.252Z,7.50
2018-04-27T06:17:44.613Z,7.60
2018-04-27T06:20:12.993Z,7.60
2018-04-27T06:22:48.158Z,7.70
2018-04-27T06:25:16.551Z,7.70
2018-04-27T06:27:44.964Z,7.80
2018-04-27T06:30:13.307Z,7.90
2018-04-27T06:32:41.629Z,7.90
2018-04-27T06:35:09.939Z,7.90
2018-04-27T06:37:38.211Z,7.90
2018-04-27T06:40:06.533Z,8.00
2018-04-27T06:42:34.812Z,8.00
2018-04-27T06:45:03.144Z,8.10
2018-04-27T06:47:31.435Z,8.10
2018-04-27T06:49:59.763Z,8.30
2018-04-27T06:52:28.052Z,8.30
2018-04-27T06:54:56.351Z,8.40
2018-04-27T06:57:24.624Z,8.50
2018-04-27T06:59:52.940Z,8.60
2018-04-27T07:02:21.233Z,8.70
2018-04-27T07:04:49.566Z,8.80
2018-04-27T07:07:17.875Z,9.00
2018-04-27T07:09:46.214Z,9.10
2018-04-27T07:12:14.515Z,9.30
2018-04-27T07:14:42.845Z,9.40
2018-04-27T07:17:11.240Z,9.40
2018-04-27T07:19:40.269Z,9.60
2018-04-27T07:22:09.307Z,9.70
2018-04-27T07:24:37.638Z,9.70
2018-04-27T07:27:06.691Z,9.90
2018-04-27T07:29:35.012Z,9.90
2018-04-27T07:32:04.052Z,10.10
2018-04-27T07:34:32.382Z,10.10
2018-04-27T07:37:00.681Z,10.30
2018-04-27T07:39:28.992Z,10.40
2018-04-27T07:41:57.271Z,10.60
2018-04-27T07:44:25.738Z,10.70
2018-04-27T07:46:54.766Z,11.10
2018-04-27T07:49:23.161Z,11.00
2018-04-27T07:51:52.280Z,11.40
2018-04-27T07:54:20.626Z,11.40
2018-04-27T07:56:48.921Z,11.50
2018-04-27T07:59:17.274Z,11.70
2018-04-27T08:01:45.569Z,11.80
2018-04-27T08:04:13.861Z,11.80
2018-04-27T08:06:42.192Z,12.00
2018-04-27T08:09:10.496Z,12.00
2018-04-27T08:11:39.596Z,12.30
2018-04-27T08:14:08.678Z,12.40
2018-04-27T08:16:38.668Z,12.40
2018-04-27T08:19:06.992Z,12.40
2018-04-27T08:21:35.387Z,12.50
2018-04-27T08:24:03.841Z,12.70
2018-04-27T08:26:32.256Z,12.80
2018-04-27T08:29:01.425Z,12.80
2018-04-27T08:31:30.633Z,13.00
2018-04-27T08:33:58.980Z,13.00
2018-04-27T08:36:27.412Z,13.10
2018-04-27T08:38:55.734Z,13.20
2018-04-27T08:41:24.076Z,13.20
2018-04-27T08:43:52.517Z,13.30
2018-04-27T08:46:20.848Z,13.30
2018-04-27T08:48:49.392Z,13.40
2018-04-27T08:51:17.908Z,13.50
2018-04-27T08:53:46.392Z,13.60
2018-04-27T08:56:14.992Z,13.60
2018-04-27T08:58:44.110Z,13.90
2018-04-27T09:01:13.269Z,13.90
2018-04-27T09:03:41.668Z,13.90
2018-04-27T09:06:10.070Z,13.90
2018-04-27T09:08:39.208Z,14.20
2018-04-27T09:11:07.554Z,14.20
2018-04-27T09:13:35.963Z,14.20
2018-04-27T09:16:04.355Z,14.20
2018-04-27T09:18:32.720Z,14.30
2018-04-27T09:21:01.092Z,14.40
2018-04-27T09:23:29.488Z,14.40
2018-04-27T09:25:57.909Z,14.40
2018-04-27T09:28:26.322Z,14.40
2018-04-27T09:30:56.273Z,14.50
2018-04-27T09:33:24.594Z,14.40
2018-04-27T09:35:57.181Z,14.60
2018-04-27T09:38:25.516Z,14.70
2018-04-27T09:40:53.843Z,14.90
2018-04-27T09:43:23.090Z,15.10
2018-04-27T09:45:52.247Z,15.10
2018-04-27T09:48:20.634Z,15.10
2018-04-27T09:50:49.055Z,15.00
2018-04-27T09:53:17.538Z,15.10
2018-04-27T09:55:45.922Z,15.20
2018-04-27T09:58:14.272Z,15.20
2018-04-27T10:00:42.560Z,15.30
2018-04-27T10:03:11.739Z,15.40
2018-04-27T10:05:42.474Z,15.40
2018-04-27T10:08:11.600Z,15.40
2018-04-27T10:10:39.955Z,15.40
2018-04-27T10:13:08.332Z,15.40
2018-04-27T10:15:36.689Z,15.50
2018-04-27T10:18:05.070Z,15.60
2018-04-27T10:20:33.494Z,15.70
2018-04-27T10:23:01.883Z,15.70
2018-04-27T10:25:30.225Z,15.90
2018-04-27T10:27:58.664Z,15.90
2018-04-27T10:30:27.073Z,15.90
2018-04-27T10:32:56.192Z,16.20
2018-04-27T10:35:24.540Z,16.20
2018-04-27T10:37:53.688Z,16.50
2018-04-27T10:40:22.025Z,16.40
2018-04-27T10:42:51.171Z,16.50
2018-04-27T10:45:19.485Z,16.50
2018-04-27T10:47:48.653Z,16.50
2018-04-27T10:50:17.088Z,16.50
2018-04-27T10:52:45.472Z,16.60
2018-04-27T10:55:14.636Z,17.10
2018-04-27T10:57:43.770Z,17.20
2018-04-27T11:00:12.120Z,17.20
2018-04-27T11:02:44.225Z,17.30
2018-04-27T11:05:12.596Z,17.30
2018-04-27T11:07:41.021Z,17.20
2018-04-27T11:10:10.143Z,17.40
2018-04-27T11:12:38.566Z,17.40
2018-04-27T11:15:06.923Z,17.50
2018-04-27T11:17:35.315Z,17.70
2018-04-27T11:20:03.731Z,17.90
2018-04-27T11:22:32.098Z,18.20
2018-04-27T11:25:00.459Z,18.30
2018-04-27T11:27:28.822Z,18.10
2018-04-27T11:29:57.135Z,17.90
2018-04-27T11:32:25.457Z,17.80
2018-04-27T11:34:54.520Z,17.60
2018-04-27T11:37:23.611Z,17.50
2018-04-27T11:39:51.918Z,17.50
2018-04-27T11:42:20.979Z,17.60
2018-04-27T11:44:49.297Z,17.60
2018-04-27T11:47:18.360Z,17.60
2018-04-27T11:49:46.689Z,17.60
2018-04-27T11:52:14.982Z,17.70
2018-04-27T11:54:43.316Z,17.80
2018-04-27T11:57:12.392Z,18.00
2018-04-27T11:59:40.805Z,18.00
2018-04-27T12:02:10.020Z,18.10
2018-04-27T12:04:38.348Z,18.20
2018-04-27T12:07:06.649Z,18.30
2018-04-27T12:09:35.063Z,18.30
2018-04-27T12:12:03.297Z,18.30
2018-04-27T12:14:31.648Z,18.30
2018-04-27T12:16:59.960Z,18.40
2018-04-27T12:19:29.053Z,18.50
2018-04-27T12:21:57.333Z,18.50
2018-04-27T12:24:26.490Z,18.40
2018-04-27T12:26:54.720Z,18.40
2018-04-27T12:29:23.025Z,18.60
2018-04-27T12:31:51.334Z,18.80
2018-04-27T12:34:19.652Z,18.90
2018-04-27T12:36:48.699Z,19.20
2018-04-27T12:39:17.045Z,19.20
2018-04-27T12:41:45.339Z,19.20
2018-04-27T12:44:13.673Z,19.30
2018-04-27T12:46:41.996Z,19.20
2018-04-27T12:49:10.333Z,19.30
2018-04-27T12:51:38.632Z,19.30
2018-04-27T12:54:06.988Z,19.30
2018-04-27T12:56:35.368Z,19.30
2018-04-27T12:59:03.824Z,19.40
2018-04-27T13:01:32.192Z,19.30
2018-04-27T13:04:00.597Z,19.40
2018-04-27T13:06:28.964Z,19.60
2018-04-27T13:08:58.141Z,19.50
2018-04-27T13:11:27.244Z,19.50
2018-04-27T13:13:56.435Z,19.40
2018-04-27T13:16:24.802Z,19.40
2018-04-27T13:18:53.207Z,19.40
2018-04-27T13:21:22.429Z,19.60
2018-04-27T13:23:50.820Z,19.70
2018-04-27T13:26:19.217Z,19.80
2018-04-27T13:28:48.305Z,20.10
2018-04-27T13:31:16.704Z,20.00
2018-04-27T13:33:45.205Z,20.10
2018-04-27T13:36:13.577Z,20.20
2018-04-27T13:38:42.006Z,20.40
2018-04-27T13:41:10.385Z,20.60
2018-04-27T13:43:38.768Z,20.50
2018-04-27T13:46:07.107Z,20.50
2018-04-27T13:48:35.534Z,20.60
2018-04-27T13:51:07.900Z,20.50
2018-04-27T13:53:36.246Z,20.40
2018-04-27T13:56:05.416Z,20.50
2018-04-27T13:58:33.846Z,20.50
2018-04-27T14:01:02.254Z,20.80
2018-04-27T14:03:34.581Z,21.00
2018-04-27T14:06:02.986Z,21.20
2018-04-27T14:08:31.330Z,21.40
2018-04-27T14:10:59.757Z,21.50
2018-04-27T14:13:28.869Z,21.50
2018-04-27T14:15:57.259Z,21.50
2018-04-27T14:18:25.607Z,21.60
2018-04-27T14:20:53.992Z,21.70
2018-04-27T14:23:23.148Z,21.80
2018-04-27T14:25:51.557Z,21.80
2018-04-27T14:28:19.962Z,21.90
2018-04-27T14:30:48.325Z,21.80
2018-04-27T14:33:16.673Z,21.90
2018-04-27T14:35:46.394Z,21.80
2018-04-27T14:38:14.750Z,21.80
2018-04-27T14:40:43.120Z,21.80
2018-04-27T14:43:11.476Z,21.90
2018-04-27T14:45:39.949Z,21.90
2018-04-27T14:48:08.514Z,21.90
2018-04-27T14:50:36.953Z,22.00
2018-04-27T14:53:06.061Z,22.10
2018-04-27T14:55:35.201Z,22.10
2018-04-27T14:58:03.535Z,22.00
2018-04-27T15:00:31.923Z,22.00
2018-04-27T15:03:00.306Z,22.10
2018-04-27T15:05:28.693Z,22.10
2018-04-27T15:07:57.037Z,21.90
2018-04-27T15:10:25.461Z,21.80
2018-04-27T15:12:54.533Z,21.80
2018-04-27T15:15:23.744Z,21.90
2018-04-27T15:17:52.159Z,21.90
2018-04-27T15:20:20.532Z,22.00
2018-04-27T15:22:48.841Z,22.20
2018-04-27T15:25:17.246Z,22.40
2018-04-27T15:27:45.592Z,22.50
2018-04-27T15:30:13.941Z,22.80
2018-04-27T15:32:42.240Z,23.00
2018-04-27T15:35:10.565Z,23.20
2018-04-27T15:37:38.879Z,23.20
2018-04-27T15:40:07.204Z,23.30
2018-04-27T15:42:36.284Z,23.40
2018-04-27T15:45:04.613Z,23.40
2018-04-27T15:47:32.924Z,23.70
2018-04-27T15:50:01.265Z,23.80
2018-04-27T15:52:29.672Z,23.60
2018-04-27T15:54:58.117Z,23.40
2018-04-27T15:57:26.498Z,23.20
2018-04-27T15:59:54.888Z,22.90
2018-04-27T16:02:23.280Z,22.70
2018-04-27T16:04:51.618Z,22.50
2018-04-27T16:07:20.000Z,22.30
2018-04-27T16:09:48.328Z,22.20
2018-04-27T16:12:16.765Z,22.10
2018-04-27T16:14:45.110Z,21.90
2018-04-27T16:17:13.468Z,21.90
2018-04-27T16:19:41.849Z,22.30
2018-04-27T16:22:10.219Z,22.70
2018-04-27T16:24:38.893Z,23.10
2018-04-27T16:27:07.438Z,23.50
2018-04-27T16:29:35.836Z,23.70
2018-04-27T16:32:04.241Z,23.90
2018-04-27T16:34:33.485Z,24.00
2018-04-27T16:37:01.995Z,24.10
2018-04-27T16:39:30.556Z,24.20
2018-04-27T16:41:59.055Z,24.30
2018-04-27T16:44:27.359Z,24.30
2018-04-27T16:46:55.729Z,24.10
2018-04-27T16:49:24.256Z,24.00
2018-04-27T16:51:52.711Z,23.70
2018-04-27T16:54:21.380Z,23.70
2018-04-27T16:56:50.037Z,23.60
2018-04-27T16:59:18.546Z,23.30
2018-04-27T17:01:47.361Z,22.90
2018-04-27T17:04:16.617Z,22.50
2018-04-27T17:06:45.109Z,22.50
2018-04-27T17:09:13.568Z,22.40
2018-04-27T17:11:41.939Z,22.20
2018-04-27T17:14:10.310Z,22.00
2018-04-27T17:16:39.493Z,21.60
2018-04-27T17:19:08.062Z,21.60
2018-04-27T17:21:36.501Z,21.40
2018-04-27T17:24:04.864Z,21.30
2018-04-27T17:26:33.328Z,21.20
2018-04-27T17:29:01.786Z,21.20
2018-04-27T17:31:30.199Z,21.00
2018-04-27T17:33:58.628Z,21.00
2018-04-27T17:36:27.631Z,20.90
2018-04-27T17:38:56.128Z,20.80
2018-04-27T17:41:24.631Z,20.70
2018-04-27T17:43:53.129Z,20.60
2018-04-27T17:46:44.274Z,20.50
2018-04-27T17:49:13.534Z,20.20
2018-04-27T17:54:48.693Z,20.10
2018-04-27T17:57:17.177Z,20.00
2018-04-27T17:59:52.261Z,19.80
2018-04-27T18:02:37.297Z,19.80
2018-04-27T18:05:11.869Z,19.70
2018-04-27T18:21:25.634Z,19.30
2018-04-27T18:24:00.806Z,19.20
2018-04-27T18:26:30.970Z,19.20
2018-04-27T18:29:00.453Z,19.10
2018-04-27T18:31:32.360Z,19.10
2018-04-27T18:34:15.169Z,19.00
2018-04-27T18:36:59.675Z,18.90
2018-04-27T18:39:30.664Z,18.80
2018-04-27T18:47:08.805Z,18.60
2018-04-27T18:49:39.765Z,18.50
2018-04-27T18:52:08.885Z,18.40
2018-04-27T18:54:37.438Z,18.40
2018-04-27T18:57:05.805Z,18.30
2018-04-27T18:59:35.918Z,18.20
2018-04-27T19:02:07.080Z,18.20
2018-04-27T19:04:36.681Z,18.10
2018-04-27T19:07:05.099Z,18.00
2018-04-27T19:09:33.591Z,18.00
2018-04-27T19:12:02.036Z,18.00
2018-04-27T19:14:30.505Z,18.00
2018-04-27T19:16:58.898Z,17.90
2018-04-27T19:19:27.386Z,17.80
2018-04-27T19:21:55.846Z,17.80
2018-04-27T19:24:24.251Z,17.80
2018-04-27T19:26:52.616Z,17.70
2018-04-27T19:29:21.771Z,17.60
2018-04-27T19:31:50.157Z,17.60
2018-04-27T19:34:18.561Z,17.60
2018-04-27T19:36:46.992Z,17.40
2018-04-27T19:39:16.398Z,17.40
2018-04-27T19:41:44.882Z,17.40
2018-04-27T19:44:13.335Z,17.40
2018-04-27T19:46:41.747Z,17.40
2018-04-27T19:49:11.043Z,17.30
2018-04-27T19:51:39.383Z,17.20
2018-04-27T19:54:08.504Z,17.20
2018-04-27T19:56:36.852Z,17.20
2018-04-27T19:59:05.262Z,17.10
2018-04-27T20:01:33.650Z,17.10
2018-04-27T20:04:02.092Z,17.00
2018-04-27T20:06:30.454Z,17.00
2018-04-27T20:08:58.785Z,17.00
2018-04-27T20:11:27.168Z,16.90
2018-04-27T20:13:56.229Z,16.80
2018-04-27T20:16:36.452Z,16.80
2018-04-27T20:19:08.440Z,16.80
2018-04-27T20:21:36.721Z,16.70
2018-04-27T20:24:05.903Z,16.70
2018-04-27T20:26:35.797Z,16.60
2018-04-27T20:29:04.124Z,16.60
2018-04-27T20:31:32.434Z,16.50
2018-04-27T20:34:00.742Z,16.50
2018-04-27T20:36:29.066Z,16.40
2018-04-27T20:39:01.004Z,16.40
2018-04-27T20:41:30.066Z,16.30
2018-04-27T20:43:58.400Z,16.30
2018-04-27T20:46:26.751Z,16.20
2018-04-27T20:48:55.925Z,16.10
2018-04-27T20:51:24.377Z,16.10
2018-04-27T20:56:47.357Z,15.90
2018-04-27T20:59:15.695Z,15.80
2018-04-27T21:01:43.987Z,15.80
2018-04-27T21:04:12.313Z,15.70
2018-04-27T21:06:40.599Z,15.70
2018-04-27T21:09:13.359Z,15.60
2018-04-27T21:11:42.444Z,15.60
2018-04-27T21:14:10.831Z,15.60
2018-04-27T21:16:40.057Z,15.60
2018-04-27T21:19:09.182Z,15.50
2018-04-27T21:21:37.595Z,15.40
2018-04-27T21:24:05.946Z,15.40
2018-04-27T21:26:37.196Z,15.40
2018-04-27T21:29:05.541Z,15.40
2018-04-27T21:31:34.664Z,15.30
2018-04-27T21:34:02.971Z,15.30
2018-04-27T21:36:32.211Z,15.20
2018-04-27T21:42:12.951Z,15.20
2018-04-27T21:44:42.040Z,15.10
2018-04-27T21:47:13.143Z,15.00
2018-04-27T21:49:43.933Z,14.90
2018-04-27T21:52:15.100Z,14.90
2018-04-27T21:54:46.149Z,14.80
2018-04-27T21:57:22.282Z,14.60
2018-04-27T21:59:59.677Z,14.20
2018-04-27T22:02:28.806Z,14.20
2018-04-27T22:05:04.680Z,14.10
2018-04-27T22:07:33.809Z,14.10
2018-04-27T22:10:02.139Z,14.00
2018-04-27T22:12:46.008Z,14.00
2018-04-27T22:15:14.385Z,14.00
2018-04-27T22:17:42.688Z,13.90
2018-04-27T22:20:11.793Z,13.90
2018-04-27T22:22:42.133Z,13.80
2018-04-27T22:25:14.247Z,13.80
2018-04-27T22:27:44.424Z,13.80
2018-04-27T22:30:20.259Z,13.80
2018-04-27T22:32:48.592Z,13.70
2018-04-27T22:35:22.719Z,13.50
2018-04-27T22:37:51.712Z,13.50
2018-04-27T22:43:21.314Z,13.20
2018-04-27T22:46:01.152Z,13.20
2018-04-27T22:48:47.240Z,13.10
2018-04-27T22:51:23.217Z,13.10
2018-04-27T22:53:52.360Z,13.10
2018-04-27T22:56:56.435Z,13.10
2018-04-27T22:59:29.380Z,13.00
2018-04-27T23:01:57.717Z,13.00
2018-04-27T23:04:26.790Z,12.90
2018-04-27T23:06:55.885Z,12.90
2018-04-27T23:09:24.195Z,12.80
2018-04-27T23:11:52.533Z,12.80
2018-04-27T23:14:34.573Z,12.90
2018-04-27T23:17:15.143Z,12.80
2018-04-27T23:19:45.944Z,12.80
2018-04-27T23:22:26.777Z,12.80
2018-04-27T23:25:00.797Z,12.80
2018-04-27T23:27:29.124Z,12.70
2018-04-27T23:29:57.428Z,12.80
2018-04-27T23:32:26.589Z,12.70
2018-04-27T23:34:54.894Z,12.60
2018-04-27T23:37:23.222Z,12.40
2018-04-27T23:39:52.318Z,12.30
2018-04-27T23:42:20.660Z,12.30
2018-04-27T23:44:48.962Z,12.10
2018-04-27T23:47:17.293Z,12.10
2018-04-27T23:49:45.583Z,12.10
2018-04-27T23:52:13.916Z,12.10
2018-04-27T23:54:42.984Z,12.00
2018-04-27T23:57:11.324Z,12.00
2018-04-27T23:59:40.440Z,12.00
